sensor_id;sensor_type;location;lat;lon;timestamp;temperature;humidity
20831;DHT22;10576;53.556;9.868;2024-02-14T00:01:55;6.00;99.90
20831;DHT22;10576;53.556;9.868;2024-02-14T00:04:20;5.90;99.90
20831;DHT22;10576;53.556;9.868;2024-02-14T00:06:46;6.00;99.90
20831;DHT22;10576;53.556;9.868;2024-02-14T00:09:12;5.90;99.90
20831;DHT22;10576;53.556;9.868;2024-02-14T00:11:37;6.00;99.90
20831;DHT22;10576;53.556;9.868;2024-02-14T00:14:03;6.20;99.90
20831;DHT22;10576;53.556;9.868;2024-02-14T00:16:29;6.20;99.90
20831;DHT22;10576;53.556;9.868;2024-02-14T00:18:55;6.00;99.90
20831;DHT22;10576;53.556;9.868;2024-02-14T00:21:22;6.00;99.90
20831;DHT22;10576;53.556;9.868;2024-02-14T00:23:47;6.00;99.90
20831;DHT22;10576;53.556;9.868;2024-02-14T00:26:13;6.10;99.90
20831;DHT22;10576;53.556;9.868;2024-02-14T00:28:39;6.10;99.90
20831;DHT22;10576;53.556;9.868;2024-02-14T00:31:04;6.10;99.90
20831;DHT22;10576;53.556;9.868;2024-02-14T00:33:30;6.10;99.90
20831;DHT22;10576;53.556;9.868;2024-02-14T00:35:55;6.10;99.90
20831;DHT22;10576;53.556;9.868;2024-02-14T00:38:21;6.00;99.90
20831;DHT22;10576;53.556;9.868;2024-02-14T00:40:47;6.20;99.90
20831;DHT22;10576;53.556;9.868;2024-02-14T00:43:12;6.00;99.90
20831;DHT22;10576;53.556;9.868;2024-02-14T00:45:39;6.00;99.90
20831;DHT22;10576;53.556;9.868;2024-02-14T00:48:04;6.10;99.90
20831;DHT22;10576;53.556;9.868;2024-02-14T00:50:30;6.10;99.90
20831;DHT22;10576;53.556;9.868;2024-02-14T00:52:55;6.80;99.90
20831;DHT22;10576;53.556;9.868;2024-02-14T00:55:21;6.30;99.90
20831;DHT22;10576;53.556;9.868;2024-02-14T00:57:47;6.20;99.90
20831;DHT22;10576;53.556;9.868;2024-02-14T01:00:12;6.10;99.90
20831;DHT22;10576;53.556;9.868;2024-02-14T01:02:38;6.20;99.90
20831;DHT22;10576;53.556;9.868;2024-02-14T01:05:04;6.20;99.90
20831;DHT22;10576;53.556;9.868;2024-02-14T01:07:30;6.10;99.90
20831;DHT22;10576;53.556;9.868;2024-02-14T01:09:55;6.10;99.90
20831;DHT22;10576;53.556;9.868;2024-02-14T01:12:21;6.20;99.90
20831;DHT22;10576;53.556;9.868;2024-02-14T01:14:46;6.30;99.90
20831;DHT22;10576;53.556;9.868;2024-02-14T01:17:12;6.30;99.90
20831;DHT22;10576;53.556;9.868;2024-02-14T01:19:37;6.30;99.90
20831;DHT22;10576;53.556;9.868;2024-02-14T01:22:03;6.40;99.90
20831;DHT22;10576;53.556;9.868;2024-02-14T01:24:28;6.30;99.90
20831;DHT22;10576;53.556;9.868;2024-02-14T01:26:55;6.30;99.90
20831;DHT22;10576;53.556;9.868;2024-02-14T01:29:21;6.30;99.90
20831;DHT22;10576;53.556;9.868;2024-02-14T01:31:47;6.30;99.90
20831;DHT22;10576;53.556;9.868;2024-02-14T01:34:12;6.30;99.90
20831;DHT22;10576;53.556;9.868;2024-02-14T01:36:38;6.30;99.90
20831;DHT22;10576;53.556;9.868;2024-02-14T01:39:04;6.20;99.90
20831;DHT22;10576;53.556;9.868;2024-02-14T01:41:37;6.20;99.90
20831;DHT22;10576;53.556;9.868;2024-02-14T01:44:02;6.20;99.90
20831;DHT22;10576;53.556;9.868;2024-02-14T01:46:28;6.20;99.90
20831;DHT22;10576;53.556;9.868;2024-02-14T01:48:54;6.20;99.90
20831;DHT22;10576;53.556;9.868;2024-02-14T01:51:21;6.10;99.90
20831;DHT22;10576;53.556;9.868;2024-02-14T01:53:49;6.10;99.90
20831;DHT22;10576;53.556;9.868;2024-02-14T01:56:15;6.30;99.90
20831;DHT22;10576;53.556;9.868;2024-02-14T01:58:41;6.00;99.90
20831;DHT22;10576;53.556;9.868;2024-02-14T02:01:08;6.10;99.90
20831;DHT22;10576;53.556;9.868;2024-02-14T02:03:35;6.00;99.90
20831;DHT22;10576;53.556;9.868;2024-02-14T02:06:03;5.90;99.90
20831;DHT22;10576;53.556;9.868;2024-02-14T02:08:28;6.00;99.90
20831;DHT22;10576;53.556;9.868;2024-02-14T02:10:54;5.90;99.90
20831;DHT22;10576;53.556;9.868;2024-02-14T02:13:20;5.90;99.90
20831;DHT22;10576;53.556;9.868;2024-02-14T02:15:46;5.90;99.90
20831;DHT22;10576;53.556;9.868;2024-02-14T02:18:12;5.90;99.90
20831;DHT22;10576;53.556;9.868;2024-02-14T02:20:38;5.90;99.90
20831;DHT22;10576;53.556;9.868;2024-02-14T02:23:04;5.90;99.90
20831;DHT22;10576;53.556;9.868;2024-02-14T02:25:30;5.90;99.90
20831;DHT22;10576;53.556;9.868;2024-02-14T02:27:55;5.90;99.90
20831;DHT22;10576;53.556;9.868;2024-02-14T02:30:25;5.90;99.90
20831;DHT22;10576;53.556;9.868;2024-02-14T02:32:50;5.90;99.90
20831;DHT22;10576;53.556;9.868;2024-02-14T02:35:16;5.90;99.90
20831;DHT22;10576;53.556;9.868;2024-02-14T02:37:42;5.80;99.90
20831;DHT22;10576;53.556;9.868;2024-02-14T02:40:10;5.90;99.90
20831;DHT22;10576;53.556;9.868;2024-02-14T02:42:36;5.80;99.90
20831;DHT22;10576;53.556;9.868;2024-02-14T02:45:01;4.50;99.90
20831;DHT22;10576;53.556;9.868;2024-02-14T02:47:34;5.80;99.90
20831;DHT22;10576;53.556;9.868;2024-02-14T02:49:59;5.70;99.90
20831;DHT22;10576;53.556;9.868;2024-02-14T02:52:27;5.70;99.90
20831;DHT22;10576;53.556;9.868;2024-02-14T02:54:53;5.70;99.90
20831;DHT22;10576;53.556;9.868;2024-02-14T02:57:19;5.80;99.90
20831;DHT22;10576;53.556;9.868;2024-02-14T02:59:44;5.80;99.90
20831;DHT22;10576;53.556;9.868;2024-02-14T03:02:12;5.70;99.90
20831;DHT22;10576;53.556;9.868;2024-02-14T03:04:38;5.70;99.90
20831;DHT22;10576;53.556;9.868;2024-02-14T03:07:04;5.60;99.90
20831;DHT22;10576;53.556;9.868;2024-02-14T03:09:35;5.60;99.90
20831;DHT22;10576;53.556;9.868;2024-02-14T03:12:03;5.70;99.90
20831;DHT22;10576;53.556;9.868;2024-02-14T03:14:30;5.70;99.90
20831;DHT22;10576;53.556;9.868;2024-02-14T03:17:00;5.40;99.90
20831;DHT22;10576;53.556;9.868;2024-02-14T03:19:27;5.60;99.90
20831;DHT22;10576;53.556;9.868;2024-02-14T03:21:52;5.70;99.90
20831;DHT22;10576;53.556;9.868;2024-02-14T03:24:20;5.60;99.90
20831;DHT22;10576;53.556;9.868;2024-02-14T03:26:46;5.60;99.90
20831;DHT22;10576;53.556;9.868;2024-02-14T03:29:11;5.60;99.90
20831;DHT22;10576;53.556;9.868;2024-02-14T03:31:37;5.50;99.90
20831;DHT22;10576;53.556;9.868;2024-02-14T03:34:02;5.60;99.90
20831;DHT22;10576;53.556;9.868;2024-02-14T03:36:28;5.80;99.90
20831;DHT22;10576;53.556;9.868;2024-02-14T03:38:56;5.60;99.90
20831;DHT22;10576;53.556;9.868;2024-02-14T03:41:22;5.70;99.90
20831;DHT22;10576;53.556;9.868;2024-02-14T03:43:47;5.60;99.90
20831;DHT22;10576;53.556;9.868;2024-02-14T03:46:14;5.70;99.90
20831;DHT22;10576;53.556;9.868;2024-02-14T03:48:40;5.70;99.90
20831;DHT22;10576;53.556;9.868;2024-02-14T03:51:08;5.70;99.90
20831;DHT22;10576;53.556;9.868;2024-02-14T03:53:34;5.70;99.90
20831;DHT22;10576;53.556;9.868;2024-02-14T03:55:59;5.60;99.90
20831;DHT22;10576;53.556;9.868;2024-02-14T03:58:26;5.70;99.90
20831;DHT22;10576;53.556;9.868;2024-02-14T04:00:51;5.60;99.90
20831;DHT22;10576;53.556;9.868;2024-02-14T04:03:17;5.70;99.90
20831;DHT22;10576;53.556;9.868;2024-02-14T04:05:43;5.70;99.90
20831;DHT22;10576;53.556;9.868;2024-02-14T04:08:09;5.70;99.90
20831;DHT22;10576;53.556;9.868;2024-02-14T04:10:38;5.80;99.90
20831;DHT22;10576;53.556;9.868;2024-02-14T04:13:04;5.60;99.90
20831;DHT22;10576;53.556;9.868;2024-02-14T04:15:32;5.70;99.90
20831;DHT22;10576;53.556;9.868;2024-02-14T04:17:58;6.00;99.90
20831;DHT22;10576;53.556;9.868;2024-02-14T04:20:25;5.70;99.90
20831;DHT22;10576;53.556;9.868;2024-02-14T04:22:50;5.60;99.90
20831;DHT22;10576;53.556;9.868;2024-02-14T04:25:16;5.50;99.90
20831;DHT22;10576;53.556;9.868;2024-02-14T04:27:41;5.60;99.90
20831;DHT22;10576;53.556;9.868;2024-02-14T04:30:07;5.20;99.90
20831;DHT22;10576;53.556;9.868;2024-02-14T04:32:32;5.70;99.90
20831;DHT22;10576;53.556;9.868;2024-02-14T04:34:58;5.70;99.90
20831;DHT22;10576;53.556;9.868;2024-02-14T04:37:23;5.60;99.90
20831;DHT22;10576;53.556;9.868;2024-02-14T04:39:49;5.50;99.90
20831;DHT22;10576;53.556;9.868;2024-02-14T04:42:15;5.60;99.90
20831;DHT22;10576;53.556;9.868;2024-02-14T04:44:40;5.60;99.90
20831;DHT22;10576;53.556;9.868;2024-02-14T04:47:06;5.50;99.90
20831;DHT22;10576;53.556;9.868;2024-02-14T04:49:31;5.60;99.90
20831;DHT22;10576;53.556;9.868;2024-02-14T04:51:57;5.60;99.90
20831;DHT22;10576;53.556;9.868;2024-02-14T04:54:23;5.70;99.90
20831;DHT22;10576;53.556;9.868;2024-02-14T04:56:48;5.50;99.90
20831;DHT22;10576;53.556;9.868;2024-02-14T04:59:14;5.60;99.90
20831;DHT22;10576;53.556;9.868;2024-02-14T05:01:39;5.60;99.90
20831;DHT22;10576;53.556;9.868;2024-02-14T05:04:08;6.20;99.90
20831;DHT22;10576;53.556;9.868;2024-02-14T05:06:33;5.70;99.90
20831;DHT22;10576;53.556;9.868;2024-02-14T05:08:59;5.60;99.90
20831;DHT22;10576;53.556;9.868;2024-02-14T05:11:25;5.60;99.90
20831;DHT22;10576;53.556;9.868;2024-02-14T05:13:50;5.60;99.90
20831;DHT22;10576;53.556;9.868;2024-02-14T05:16:21;5.60;99.90
20831;DHT22;10576;53.556;9.868;2024-02-14T05:18:47;5.60;99.90
20831;DHT22;10576;53.556;9.868;2024-02-14T05:21:13;5.60;99.90
20831;DHT22;10576;53.556;9.868;2024-02-14T05:23:38;5.60;99.90
20831;DHT22;10576;53.556;9.868;2024-02-14T05:26:04;5.70;99.90
20831;DHT22;10576;53.556;9.868;2024-02-14T05:28:30;5.70;99.90
20831;DHT22;10576;53.556;9.868;2024-02-14T05:30:56;5.70;99.90
20831;DHT22;10576;53.556;9.868;2024-02-14T05:33:21;5.80;99.90
20831;DHT22;10576;53.556;9.868;2024-02-14T05:35:48;5.80;99.90
20831;DHT22;10576;53.556;9.868;2024-02-14T05:38:13;5.70;99.90
20831;DHT22;10576;53.556;9.868;2024-02-14T05:40:39;5.70;99.90
20831;DHT22;10576;53.556;9.868;2024-02-14T05:43:05;5.80;99.90
20831;DHT22;10576;53.556;9.868;2024-02-14T05:45:32;6.10;99.90
20831;DHT22;10576;53.556;9.868;2024-02-14T05:47:58;5.80;99.90
20831;DHT22;10576;53.556;9.868;2024-02-14T05:50:23;6.00;99.90
20831;DHT22;10576;53.556;9.868;2024-02-14T05:52:49;5.90;99.90
20831;DHT22;10576;53.556;9.868;2024-02-14T05:55:14;6.30;99.90
20831;DHT22;10576;53.556;9.868;2024-02-14T05:57:40;5.90;99.90
20831;DHT22;10576;53.556;9.868;2024-02-14T06:00:06;5.90;99.90
20831;DHT22;10576;53.556;9.868;2024-02-14T06:02:32;5.90;99.90
20831;DHT22;10576;53.556;9.868;2024-02-14T06:04:58;6.00;99.90
20831;DHT22;10576;53.556;9.868;2024-02-14T06:07:23;6.00;99.90
20831;DHT22;10576;53.556;9.868;2024-02-14T06:09:49;5.90;99.90
20831;DHT22;10576;53.556;9.868;2024-02-14T06:12:14;6.00;99.90
20831;DHT22;10576;53.556;9.868;2024-02-14T06:14:40;6.30;99.90
20831;DHT22;10576;53.556;9.868;2024-02-14T06:17:05;6.00;99.90
20831;DHT22;10576;53.556;9.868;2024-02-14T06:19:31;6.00;99.90
20831;DHT22;10576;53.556;9.868;2024-02-14T06:21:57;6.10;99.90
20831;DHT22;10576;53.556;9.868;2024-02-14T06:24:24;6.00;99.90
20831;DHT22;10576;53.556;9.868;2024-02-14T06:26:49;6.10;99.90
20831;DHT22;10576;53.556;9.868;2024-02-14T06:29:15;6.10;99.90
20831;DHT22;10576;53.556;9.868;2024-02-14T06:31:40;6.20;99.90
20831;DHT22;10576;53.556;9.868;2024-02-14T06:34:06;6.20;99.90
20831;DHT22;10576;53.556;9.868;2024-02-14T06:36:33;6.10;99.90
20831;DHT22;10576;53.556;9.868;2024-02-14T06:38:59;6.20;99.90
20831;DHT22;10576;53.556;9.868;2024-02-14T06:41:24;6.20;99.90
20831;DHT22;10576;53.556;9.868;2024-02-14T06:43:50;6.20;99.90
20831;DHT22;10576;53.556;9.868;2024-02-14T06:46:15;6.30;99.90
20831;DHT22;10576;53.556;9.868;2024-02-14T06:48:41;6.20;99.90
20831;DHT22;10576;53.556;9.868;2024-02-14T06:51:07;6.40;99.90
20831;DHT22;10576;53.556;9.868;2024-02-14T06:53:32;6.20;99.90
20831;DHT22;10576;53.556;9.868;2024-02-14T06:55:58;6.20;99.90
20831;DHT22;10576;53.556;9.868;2024-02-14T06:58:23;6.20;99.90
20831;DHT22;10576;53.556;9.868;2024-02-14T07:00:49;6.30;99.90
20831;DHT22;10576;53.556;9.868;2024-02-14T07:03:15;6.30;99.90
20831;DHT22;10576;53.556;9.868;2024-02-14T07:05:41;6.30;99.90
20831;DHT22;10576;53.556;9.868;2024-02-14T07:08:07;6.30;99.90
20831;DHT22;10576;53.556;9.868;2024-02-14T07:10:32;6.60;99.90
20831;DHT22;10576;53.556;9.868;2024-02-14T07:12:58;6.30;99.90
20831;DHT22;10576;53.556;9.868;2024-02-14T07:15:24;6.30;99.90
20831;DHT22;10576;53.556;9.868;2024-02-14T07:17:54;6.30;99.90
20831;DHT22;10576;53.556;9.868;2024-02-14T07:20:20;6.40;99.90
20831;DHT22;10576;53.556;9.868;2024-02-14T07:22:46;6.40;99.90
20831;DHT22;10576;53.556;9.868;2024-02-14T07:25:13;6.30;99.90
20831;DHT22;10576;53.556;9.868;2024-02-14T07:27:39;6.40;99.90
20831;DHT22;10576;53.556;9.868;2024-02-14T07:30:05;6.50;99.90
20831;DHT22;10576;53.556;9.868;2024-02-14T07:32:31;6.50;99.90
20831;DHT22;10576;53.556;9.868;2024-02-14T07:34:56;6.50;99.90
20831;DHT22;10576;53.556;9.868;2024-02-14T07:37:22;6.50;99.90
20831;DHT22;10576;53.556;9.868;2024-02-14T07:39:47;6.70;99.90
20831;DHT22;10576;53.556;9.868;2024-02-14T07:42:13;6.50;99.90
20831;DHT22;10576;53.556;9.868;2024-02-14T07:44:38;6.50;99.90
20831;DHT22;10576;53.556;9.868;2024-02-14T07:47:04;6.70;99.90
20831;DHT22;10576;53.556;9.868;2024-02-14T07:49:30;6.60;99.90
20831;DHT22;10576;53.556;9.868;2024-02-14T07:51:55;6.60;99.90
20831;DHT22;10576;53.556;9.868;2024-02-14T07:54:21;6.70;99.90
20831;DHT22;10576;53.556;9.868;2024-02-14T07:56:46;6.70;99.90
20831;DHT22;10576;53.556;9.868;2024-02-14T07:59:12;6.70;99.90
20831;DHT22;10576;53.556;9.868;2024-02-14T08:01:37;6.80;99.90
20831;DHT22;10576;53.556;9.868;2024-02-14T08:04:03;6.80;99.90
20831;DHT22;10576;53.556;9.868;2024-02-14T08:06:30;6.80;99.90
20831;DHT22;10576;53.556;9.868;2024-02-14T08:08:55;6.80;99.90
20831;DHT22;10576;53.556;9.868;2024-02-14T08:11:26;6.80;99.90
20831;DHT22;10576;53.556;9.868;2024-02-14T08:13:52;6.90;99.90
20831;DHT22;10576;53.556;9.868;2024-02-14T08:16:17;6.90;99.90
20831;DHT22;10576;53.556;9.868;2024-02-14T08:18:43;6.90;99.90
20831;DHT22;10576;53.556;9.868;2024-02-14T08:21:09;6.80;99.90
20831;DHT22;10576;53.556;9.868;2024-02-14T08:23:36;6.90;99.90
20831;DHT22;10576;53.556;9.868;2024-02-14T08:26:04;6.90;99.90
20831;DHT22;10576;53.556;9.868;2024-02-14T08:28:38;7.00;99.90
20831;DHT22;10576;53.556;9.868;2024-02-14T08:31:10;7.00;99.90
20831;DHT22;10576;53.556;9.868;2024-02-14T08:33:37;7.00;99.90
20831;DHT22;10576;53.556;9.868;2024-02-14T08:36:03;7.10;99.90
20831;DHT22;10576;53.556;9.868;2024-02-14T08:38:29;7.10;99.90
20831;DHT22;10576;53.556;9.868;2024-02-14T08:40:54;7.10;99.90
20831;DHT22;10576;53.556;9.868;2024-02-14T08:43:19;7.10;99.90
20831;DHT22;10576;53.556;9.868;2024-02-14T08:45:45;7.20;99.90
20831;DHT22;10576;53.556;9.868;2024-02-14T08:48:10;7.20;99.90
20831;DHT22;10576;53.556;9.868;2024-02-14T08:50:36;7.30;99.90
20831;DHT22;10576;53.556;9.868;2024-02-14T08:53:01;7.30;99.90
20831;DHT22;10576;53.556;9.868;2024-02-14T08:55:27;7.30;99.90
20831;DHT22;10576;53.556;9.868;2024-02-14T08:57:53;7.30;99.90
20831;DHT22;10576;53.556;9.868;2024-02-14T09:00:18;7.50;99.90
20831;DHT22;10576;53.556;9.868;2024-02-14T09:02:45;7.40;99.90
20831;DHT22;10576;53.556;9.868;2024-02-14T09:05:12;7.50;99.90
20831;DHT22;10576;53.556;9.868;2024-02-14T09:07:38;7.50;99.90
20831;DHT22;10576;53.556;9.868;2024-02-14T09:10:03;7.50;99.90
20831;DHT22;10576;53.556;9.868;2024-02-14T09:12:30;7.60;99.90
20831;DHT22;10576;53.556;9.868;2024-02-14T09:14:57;7.60;99.90
20831;DHT22;10576;53.556;9.868;2024-02-14T09:17:22;7.70;99.90
20831;DHT22;10576;53.556;9.868;2024-02-14T09:19:48;7.70;99.90
20831;DHT22;10576;53.556;9.868;2024-02-14T09:22:13;7.70;99.90
20831;DHT22;10576;53.556;9.868;2024-02-14T09:24:43;7.80;99.90
20831;DHT22;10576;53.556;9.868;2024-02-14T09:27:09;7.80;99.90
20831;DHT22;10576;53.556;9.868;2024-02-14T09:29:34;7.90;99.90
20831;DHT22;10576;53.556;9.868;2024-02-14T09:32:02;8.00;99.90
20831;DHT22;10576;53.556;9.868;2024-02-14T09:34:29;8.00;99.90
20831;DHT22;10576;53.556;9.868;2024-02-14T09:36:54;8.00;99.90
20831;DHT22;10576;53.556;9.868;2024-02-14T09:39:22;8.30;99.90
20831;DHT22;10576;53.556;9.868;2024-02-14T09:41:51;8.10;99.90
20831;DHT22;10576;53.556;9.868;2024-02-14T09:44:17;8.10;99.90
20831;DHT22;10576;53.556;9.868;2024-02-14T09:46:43;8.20;99.90
20831;DHT22;10576;53.556;9.868;2024-02-14T09:49:08;8.20;99.90
20831;DHT22;10576;53.556;9.868;2024-02-14T09:51:34;8.40;99.90
20831;DHT22;10576;53.556;9.868;2024-02-14T09:54:00;8.30;99.90
20831;DHT22;10576;53.556;9.868;2024-02-14T09:56:28;8.30;99.90
20831;DHT22;10576;53.556;9.868;2024-02-14T09:58:54;8.40;99.90
20831;DHT22;10576;53.556;9.868;2024-02-14T10:01:25;8.50;99.90
20831;DHT22;10576;53.556;9.868;2024-02-14T10:03:54;8.50;99.90
20831;DHT22;10576;53.556;9.868;2024-02-14T10:06:20;8.60;99.90
20831;DHT22;10576;53.556;9.868;2024-02-14T10:08:48;8.60;99.90
20831;DHT22;10576;53.556;9.868;2024-02-14T10:13:45;8.70;99.90
20831;DHT22;10576;53.556;9.868;2024-02-14T10:16:12;8.70;99.90
20831;DHT22;10576;53.556;9.868;2024-02-14T10:18:38;8.80;99.90
20831;DHT22;10576;53.556;9.868;2024-02-14T10:21:04;8.90;99.90
20831;DHT22;10576;53.556;9.868;2024-02-14T10:23:30;8.90;99.90
20831;DHT22;10576;53.556;9.868;2024-02-14T10:25:55;8.80;99.90
20831;DHT22;10576;53.556;9.868;2024-02-14T10:28:21;9.00;99.90
20831;DHT22;10576;53.556;9.868;2024-02-14T10:30:47;9.00;99.90
20831;DHT22;10576;53.556;9.868;2024-02-14T10:33:15;9.00;99.90
20831;DHT22;10576;53.556;9.868;2024-02-14T10:35:41;9.00;99.90
20831;DHT22;10576;53.556;9.868;2024-02-14T10:38:07;9.10;99.90
20831;DHT22;10576;53.556;9.868;2024-02-14T10:40:38;9.10;99.90
20831;DHT22;10576;53.556;9.868;2024-02-14T10:43:05;9.20;99.90
20831;DHT22;10576;53.556;9.868;2024-02-14T10:45:31;9.20;99.90
20831;DHT22;10576;53.556;9.868;2024-02-14T10:47:56;9.20;99.90
20831;DHT22;10576;53.556;9.868;2024-02-14T10:50:24;9.30;99.90
20831;DHT22;10576;53.556;9.868;2024-02-14T10:52:50;9.40;99.90
20831;DHT22;10576;53.556;9.868;2024-02-14T10:55:18;9.40;99.90
20831;DHT22;10576;53.556;9.868;2024-02-14T10:57:45;9.50;99.90
20831;DHT22;10576;53.556;9.868;2024-02-14T11:00:11;9.40;99.90
20831;DHT22;10576;53.556;9.868;2024-02-14T11:02:39;9.40;99.90
20831;DHT22;10576;53.556;9.868;2024-02-14T11:05:05;10.70;99.90
20831;DHT22;10576;53.556;9.868;2024-02-14T11:07:32;9.50;99.90
20831;DHT22;10576;53.556;9.868;2024-02-14T11:12:32;9.50;99.90
20831;DHT22;10576;53.556;9.868;2024-02-14T11:14:58;9.60;99.90
20831;DHT22;10576;53.556;9.868;2024-02-14T11:17:25;9.60;99.90
20831;DHT22;10576;53.556;9.868;2024-02-14T11:19:52;9.70;99.90
20831;DHT22;10576;53.556;9.868;2024-02-14T11:22:18;9.80;99.90
20831;DHT22;10576;53.556;9.868;2024-02-14T11:24:47;9.80;99.90
20831;DHT22;10576;53.556;9.868;2024-02-14T11:27:14;9.90;99.90
20831;DHT22;10576;53.556;9.868;2024-02-14T11:29:40;9.90;99.90
20831;DHT22;10576;53.556;9.868;2024-02-14T11:32:06;9.90;99.90
20831;DHT22;10576;53.556;9.868;2024-02-14T11:34:34;9.90;99.90
20831;DHT22;10576;53.556;9.868;2024-02-14T11:37:00;10.00;99.90
20831;DHT22;10576;53.556;9.868;2024-02-14T11:39:25;10.00;99.90
20831;DHT22;10576;53.556;9.868;2024-02-14T11:41:51;10.10;99.90
20831;DHT22;10576;53.556;9.868;2024-02-14T11:44:18;10.10;99.90
20831;DHT22;10576;53.556;9.868;2024-02-14T11:46:44;10.10;99.90
20831;DHT22;10576;53.556;9.868;2024-02-14T11:49:09;10.10;99.90
20831;DHT22;10576;53.556;9.868;2024-02-14T11:51:35;10.20;99.90
20831;DHT22;10576;53.556;9.868;2024-02-14T11:54:01;10.20;99.90
20831;DHT22;10576;53.556;9.868;2024-02-14T11:56:32;10.20;99.90
20831;DHT22;10576;53.556;9.868;2024-02-14T11:59:01;10.30;99.90
20831;DHT22;10576;53.556;9.868;2024-02-14T12:01:33;10.30;99.90
20831;DHT22;10576;53.556;9.868;2024-02-14T12:03:59;10.30;99.90
20831;DHT22;10576;53.556;9.868;2024-02-14T12:06:29;10.40;99.90
20831;DHT22;10576;53.556;9.868;2024-02-14T12:08:57;12.90;99.90
20831;DHT22;10576;53.556;9.868;2024-02-14T12:11:27;10.50;99.90
20831;DHT22;10576;53.556;9.868;2024-02-14T12:13:53;10.40;99.90
20831;DHT22;10576;53.556;9.868;2024-02-14T12:16:21;10.50;99.90
20831;DHT22;10576;53.556;9.868;2024-02-14T12:18:47;10.50;99.90
20831;DHT22;10576;53.556;9.868;2024-02-14T12:21:13;10.50;99.90
20831;DHT22;10576;53.556;9.868;2024-02-14T12:23:38;10.50;99.90
20831;DHT22;10576;53.556;9.868;2024-02-14T12:26:04;10.60;99.90
20831;DHT22;10576;53.556;9.868;2024-02-14T12:28:30;10.60;99.90
20831;DHT22;10576;53.556;9.868;2024-02-14T12:30:56;10.70;99.90
20831;DHT22;10576;53.556;9.868;2024-02-14T12:33:22;10.70;99.90
20831;DHT22;10576;53.556;9.868;2024-02-14T12:35:52;10.70;99.90
20831;DHT22;10576;53.556;9.868;2024-02-14T12:38:18;10.70;99.90
20831;DHT22;10576;53.556;9.868;2024-02-14T12:40:44;10.70;99.90
20831;DHT22;10576;53.556;9.868;2024-02-14T12:43:11;10.80;99.90
20831;DHT22;10576;53.556;9.868;2024-02-14T12:45:37;10.70;99.90
20831;DHT22;10576;53.556;9.868;2024-02-14T12:48:02;10.80;99.90
20831;DHT22;10576;53.556;9.868;2024-02-14T12:50:29;10.80;99.90
20831;DHT22;10576;53.556;9.868;2024-02-14T12:52:55;10.80;99.90
20831;DHT22;10576;53.556;9.868;2024-02-14T12:55:21;10.80;99.90
20831;DHT22;10576;53.556;9.868;2024-02-14T12:57:49;10.80;99.90
20831;DHT22;10576;53.556;9.868;2024-02-14T13:00:14;10.80;99.90
20831;DHT22;10576;53.556;9.868;2024-02-14T13:02:40;10.80;99.90
20831;DHT22;10576;53.556;9.868;2024-02-14T13:05:06;10.80;99.90
20831;DHT22;10576;53.556;9.868;2024-02-14T13:07:32;10.80;99.90
20831;DHT22;10576;53.556;9.868;2024-02-14T13:09:58;10.80;99.90
20831;DHT22;10576;53.556;9.868;2024-02-14T13:12:23;10.80;99.90
20831;DHT22;10576;53.556;9.868;2024-02-14T13:14:49;10.80;99.90
20831;DHT22;10576;53.556;9.868;2024-02-14T13:17:14;10.90;99.90
20831;DHT22;10576;53.556;9.868;2024-02-14T13:19:40;10.90;99.90
20831;DHT22;10576;53.556;9.868;2024-02-14T13:22:08;10.90;99.90
20831;DHT22;10576;53.556;9.868;2024-02-14T13:24:33;10.90;99.90
20831;DHT22;10576;53.556;9.868;2024-02-14T13:26:59;10.90;99.90
20831;DHT22;10576;53.556;9.868;2024-02-14T13:29:24;11.00;99.90
20831;DHT22;10576;53.556;9.868;2024-02-14T13:31:50;11.00;99.90
20831;DHT22;10576;53.556;9.868;2024-02-14T13:34:16;11.00;99.90
20831;DHT22;10576;53.556;9.868;2024-02-14T13:36:44;11.00;99.90
20831;DHT22;10576;53.556;9.868;2024-02-14T13:39:09;11.00;99.90
20831;DHT22;10576;53.556;9.868;2024-02-14T13:41:35;11.10;99.90
20831;DHT22;10576;53.556;9.868;2024-02-14T13:44:03;11.00;99.90
20831;DHT22;10576;53.556;9.868;2024-02-14T13:46:29;11.00;99.90
20831;DHT22;10576;53.556;9.868;2024-02-14T13:48:54;11.00;99.90
20831;DHT22;10576;53.556;9.868;2024-02-14T13:51:20;11.10;99.90
20831;DHT22;10576;53.556;9.868;2024-02-14T13:53:45;11.00;99.90
20831;DHT22;10576;53.556;9.868;2024-02-14T13:56:11;11.00;99.90
20831;DHT22;10576;53.556;9.868;2024-02-14T13:58:37;11.10;99.90
20831;DHT22;10576;53.556;9.868;2024-02-14T14:01:04;11.10;99.90
20831;DHT22;10576;53.556;9.868;2024-02-14T14:03:29;11.10;99.90
20831;DHT22;10576;53.556;9.868;2024-02-14T14:05:55;11.10;99.90
20831;DHT22;10576;53.556;9.868;2024-02-14T14:08:22;11.00;99.90
20831;DHT22;10576;53.556;9.868;2024-02-14T14:10:48;11.10;99.90
20831;DHT22;10576;53.556;9.868;2024-02-14T14:13:13;11.10;99.90
20831;DHT22;10576;53.556;9.868;2024-02-14T14:15:39;11.10;99.90
20831;DHT22;10576;53.556;9.868;2024-02-14T14:18:06;11.10;99.90
20831;DHT22;10576;53.556;9.868;2024-02-14T14:20:33;11.10;99.90
20831;DHT22;10576;53.556;9.868;2024-02-14T14:22:59;11.10;99.90
20831;DHT22;10576;53.556;9.868;2024-02-14T14:25:25;11.00;99.90
20831;DHT22;10576;53.556;9.868;2024-02-14T14:27:53;11.10;99.90
20831;DHT22;10576;53.556;9.868;2024-02-14T14:30:18;11.10;99.90
20831;DHT22;10576;53.556;9.868;2024-02-14T14:32:44;11.10;99.90
20831;DHT22;10576;53.556;9.868;2024-02-14T14:35:09;11.10;99.90
20831;DHT22;10576;53.556;9.868;2024-02-14T14:37:38;11.10;99.90
20831;DHT22;10576;53.556;9.868;2024-02-14T14:40:04;11.10;99.90
20831;DHT22;10576;53.556;9.868;2024-02-14T14:42:30;11.10;99.90
20831;DHT22;10576;53.556;9.868;2024-02-14T14:44:55;11.00;99.90
20831;DHT22;10576;53.556;9.868;2024-02-14T14:47:22;11.00;99.90
20831;DHT22;10576;53.556;9.868;2024-02-14T14:49:48;11.00;99.90
20831;DHT22;10576;53.556;9.868;2024-02-14T14:52:13;11.00;99.90
20831;DHT22;10576;53.556;9.868;2024-02-14T14:54:39;11.00;99.90
20831;DHT22;10576;53.556;9.868;2024-02-14T14:57:04;11.00;99.90
20831;DHT22;10576;53.556;9.868;2024-02-14T14:59:34;11.00;99.90
20831;DHT22;10576;53.556;9.868;2024-02-14T15:02:00;11.00;99.90
20831;DHT22;10576;53.556;9.868;2024-02-14T15:04:27;11.00;99.90
20831;DHT22;10576;53.556;9.868;2024-02-14T15:06:53;11.00;99.90
20831;DHT22;10576;53.556;9.868;2024-02-14T15:09:20;11.00;99.90
20831;DHT22;10576;53.556;9.868;2024-02-14T15:11:45;11.00;99.90
20831;DHT22;10576;53.556;9.868;2024-02-14T15:14:11;11.00;99.90
20831;DHT22;10576;53.556;9.868;2024-02-14T15:16:36;11.00;99.90
20831;DHT22;10576;53.556;9.868;2024-02-14T15:19:02;11.00;99.90
20831;DHT22;10576;53.556;9.868;2024-02-14T15:21:28;11.00;99.90
20831;DHT22;10576;53.556;9.868;2024-02-14T15:23:53;11.00;99.90
20831;DHT22;10576;53.556;9.868;2024-02-14T15:26:19;11.00;99.90
20831;DHT22;10576;53.556;9.868;2024-02-14T15:28:49;10.90;99.90
20831;DHT22;10576;53.556;9.868;2024-02-14T15:31:21;11.00;99.90
20831;DHT22;10576;53.556;9.868;2024-02-14T15:34:05;10.90;99.90
20831;DHT22;10576;53.556;9.868;2024-02-14T15:36:32;11.00;99.90
20831;DHT22;10576;53.556;9.868;2024-02-14T15:38:58;11.00;99.90
20831;DHT22;10576;53.556;9.868;2024-02-14T15:41:23;11.00;99.90